sensor_id;sensor_type;location;lat;lon;timestamp;P1;durP1;ratioP1;P2;durP2;ratioP2
15913;SDS011;8055;51.930;8.840;2023-05-10T00:01:16;9.80;;;8.80;;
15913;SDS011;8055;51.930;8.840;2023-05-10T00:03:41;10.00;;;9.00;;
15913;SDS011;8055;51.930;8.840;2023-05-10T00:06:07;9.60;;;8.60;;
15913;SDS011;8055;51.930;8.840;2023-05-10T00:08:32;9.40;;;8.50;;
15913;SDS011;8055;51.930;8.840;2023-05-10T00:10:57;10.90;;;8.95;;
15913;SDS011;8055;51.930;8.840;2023-05-10T00:13:23;8.38;;;7.40;;
15913;SDS011;8055;51.930;8.840;2023-05-10T00:15:48;9.35;;;8.45;;
15913;SDS011;8055;51.930;8.840;2023-05-10T00:18:13;8.77;;;7.93;;
15913;SDS011;8055;51.930;8.840;2023-05-10T00:20:39;9.95;;;9.05;;
15913;SDS011;8055;51.930;8.840;2023-05-10T00:23:04;11.30;;;9.35;;
15913;SDS011;8055;51.930;8.840;2023-05-10T00:25:29;11.52;;;9.35;;
15913;SDS011;8055;51.930;8.840;2023-05-10T00:27:55;10.20;;;9.13;;
15913;SDS011;8055;51.930;8.840;2023-05-10T00:30:22;11.70;;;9.80;;
15913;SDS011;8055;51.930;8.840;2023-05-10T00:32:47;10.15;;;9.07;;
15913;SDS011;8055;51.930;8.840;2023-05-10T00:35:14;9.85;;;8.68;;
15913;SDS011;8055;51.930;8.840;2023-05-10T00:37:40;9.88;;;8.90;;
15913;SDS011;8055;51.930;8.840;2023-05-10T00:40:06;9.73;;;8.80;;
15913;SDS011;8055;51.930;8.840;2023-05-10T00:42:32;9.63;;;8.73;;
15913;SDS011;8055;51.930;8.840;2023-05-10T00:44:58;10.13;;;8.82;;
15913;SDS011;8055;51.930;8.840;2023-05-10T00:47:23;10.85;;;9.75;;
15913;SDS011;8055;51.930;8.840;2023-05-10T00:49:49;9.23;;;8.32;;
15913;SDS011;8055;51.930;8.840;2023-05-10T00:52:15;10.07;;;9.07;;
15913;SDS011;8055;51.930;8.840;2023-05-10T00:54:40;11.40;;;9.65;;
15913;SDS011;8055;51.930;8.840;2023-05-10T00:57:06;9.43;;;8.40;;
15913;SDS011;8055;51.930;8.840;2023-05-10T00:59:31;10.95;;;9.85;;
15913;SDS011;8055;51.930;8.840;2023-05-10T01:01:57;9.23;;;8.32;;
15913;SDS011;8055;51.930;8.840;2023-05-10T01:04:23;9.10;;;8.00;;
15913;SDS011;8055;51.930;8.840;2023-05-10T01:06:50;9.57;;;8.57;;
15913;SDS011;8055;51.930;8.840;2023-05-10T01:09:17;10.68;;;9.05;;
15913;SDS011;8055;51.930;8.840;2023-05-10T01:11:43;9.75;;;8.38;;
15913;SDS011;8055;51.930;8.840;2023-05-10T01:14:09;10.52;;;9.07;;
15913;SDS011;8055;51.930;8.840;2023-05-10T01:16:36;10.88;;;9.77;;
15913;SDS011;8055;51.930;8.840;2023-05-10T01:19:09;10.70;;;9.60;;
15913;SDS011;8055;51.930;8.840;2023-05-10T01:24:31;9.88;;;8.88;;
15913;SDS011;8055;51.930;8.840;2023-05-10T01:33:07;11.57;;;10.38;;
15913;SDS011;8055;51.930;8.840;2023-05-10T01:41:21;12.73;;;10.95;;
15913;SDS011;8055;51.930;8.840;2023-05-10T01:44:01;11.45;;;9.88;;
15913;SDS011;8055;51.930;8.840;2023-05-10T01:46:37;10.45;;;9.30;;
15913;SDS011;8055;51.930;8.840;2023-05-10T01:49:13;11.20;;;10.02;;
15913;SDS011;8055;51.930;8.840;2023-05-10T01:51:47;9.95;;;8.93;;
15913;SDS011;8055;51.930;8.840;2023-05-10T01:54:17;12.02;;;10.68;;
15913;SDS011;8055;51.930;8.840;2023-05-10T01:56:45;13.57;;;10.13;;
15913;SDS011;8055;51.930;8.840;2023-05-10T01:59:15;11.30;;;10.10;;
15913;SDS011;8055;51.930;8.840;2023-05-10T02:01:43;12.55;;;11.07;;
15913;SDS011;8055;51.930;8.840;2023-05-10T02:04:10;12.05;;;10.73;;
15913;SDS011;8055;51.930;8.840;2023-05-10T02:06:39;13.27;;;11.88;;
15913;SDS011;8055;51.930;8.840;2023-05-10T02:09:07;12.65;;;10.60;;
15913;SDS011;8055;51.930;8.840;2023-05-10T02:11:37;11.65;;;10.30;;
15913;SDS011;8055;51.930;8.840;2023-05-10T02:14:03;12.07;;;10.30;;
15913;SDS011;8055;51.930;8.840;2023-05-10T02:16:32;12.35;;;10.68;;
15913;SDS011;8055;51.930;8.840;2023-05-10T02:19:00;12.50;;;11.20;;
15913;SDS011;8055;51.930;8.840;2023-05-10T02:21:27;11.80;;;10.57;;
15913;SDS011;8055;51.930;8.840;2023-05-10T02:23:54;10.77;;;9.63;;
15913;SDS011;8055;51.930;8.840;2023-05-10T02:26:21;13.55;;;12.15;;
15913;SDS011;8055;51.930;8.840;2023-05-10T02:28:50;16.08;;;13.52;;
15913;SDS011;8055;51.930;8.840;2023-05-10T02:31:18;17.83;;;13.95;;
15913;SDS011;8055;51.930;8.840;2023-05-10T02:33:44;18.35;;;15.45;;
15913;SDS011;8055;51.930;8.840;2023-05-10T02:36:11;15.95;;;12.80;;
15913;SDS011;8055;51.930;8.840;2023-05-10T02:38:38;17.75;;;15.20;;
15913;SDS011;8055;51.930;8.840;2023-05-10T02:41:04;11.43;;;8.85;;
15913;SDS011;8055;51.930;8.840;2023-05-10T02:43:31;9.55;;;7.90;;
15913;SDS011;8055;51.930;8.840;2023-05-10T02:45:58;3.38;;;2.97;;
15913;SDS011;8055;51.930;8.840;2023-05-10T02:48:23;3.30;;;2.30;;
15913;SDS011;8055;51.930;8.840;2023-05-10T02:50:50;2.33;;;1.80;;
15913;SDS011;8055;51.930;8.840;2023-05-10T02:53:22;4.45;;;2.00;;
15913;SDS011;8055;51.930;8.840;2023-05-10T02:55:49;4.40;;;1.70;;
15913;SDS011;8055;51.930;8.840;2023-05-10T02:58:16;4.15;;;1.98;;
15913;SDS011;8055;51.930;8.840;2023-05-10T03:00:44;2.78;;;1.75;;
15913;SDS011;8055;51.930;8.840;2023-05-10T03:03:10;3.80;;;1.80;;
15913;SDS011;8055;51.930;8.840;2023-05-10T03:05:36;5.25;;;1.80;;
15913;SDS011;8055;51.930;8.840;2023-05-10T03:08:01;2.03;;;1.77;;
15913;SDS011;8055;51.930;8.840;2023-05-10T03:10:29;1.80;;;1.70;;
15913;SDS011;8055;51.930;8.840;2023-05-10T03:15:57;2.72;;;2.20;;
15913;SDS011;8055;51.930;8.840;2023-05-10T03:18:35;2.67;;;2.30;;
15913;SDS011;8055;51.930;8.840;2023-05-10T03:21:08;3.95;;;2.60;;
15913;SDS011;8055;51.930;8.840;2023-05-10T03:23:41;3.33;;;2.50;;
15913;SDS011;8055;51.930;8.840;2023-05-10T03:26:09;3.67;;;2.58;;
15913;SDS011;8055;51.930;8.840;2023-05-10T03:28:42;5.05;;;3.08;;
15913;SDS011;8055;51.930;8.840;2023-05-10T03:31:08;4.10;;;3.70;;
15913;SDS011;8055;51.930;8.840;2023-05-10T03:33:34;4.25;;;3.10;;
15913;SDS011;8055;51.930;8.840;2023-05-10T03:35:59;4.60;;;4.20;;
15913;SDS011;8055;51.930;8.840;2023-05-10T03:38:25;5.07;;;4.57;;
15913;SDS011;8055;51.930;8.840;2023-05-10T03:40:50;7.95;;;5.32;;
15913;SDS011;8055;51.930;8.840;2023-05-10T03:43:16;6.38;;;5.28;;
15913;SDS011;8055;51.930;8.840;2023-05-10T03:45:41;8.60;;;6.53;;
15913;SDS011;8055;51.930;8.840;2023-05-10T03:48:07;8.18;;;6.47;;
15913;SDS011;8055;51.930;8.840;2023-05-10T03:50:32;9.35;;;7.63;;
15913;SDS011;8055;51.930;8.840;2023-05-10T03:52:58;8.07;;;6.60;;
15913;SDS011;8055;51.930;8.840;2023-05-10T03:55:23;11.80;;;7.97;;
15913;SDS011;8055;51.930;8.840;2023-05-10T03:57:49;9.55;;;8.27;;
15913;SDS011;8055;51.930;8.840;2023-05-10T04:00:18;12.68;;;9.80;;
15913;SDS011;8055;51.930;8.840;2023-05-10T04:02:44;12.15;;;9.32;;
15913;SDS011;8055;51.930;8.840;2023-05-10T04:05:10;11.43;;;9.73;;
15913;SDS011;8055;51.930;8.840;2023-05-10T04:07:35;12.45;;;10.18;;
15913;SDS011;8055;51.930;8.840;2023-05-10T04:10:01;11.70;;;9.38;;
15913;SDS011;8055;51.930;8.840;2023-05-10T04:12:26;10.80;;;9.70;;
15913;SDS011;8055;51.930;8.840;2023-05-10T04:14:51;11.73;;;10.27;;
15913;SDS011;8055;51.930;8.840;2023-05-10T04:23:27;13.40;;;11.27;;
15913;SDS011;8055;51.930;8.840;2023-05-10T04:25:58;14.73;;;10.80;;
15913;SDS011;8055;51.930;8.840;2023-05-10T04:28:24;12.52;;;11.23;;
15913;SDS011;8055;51.930;8.840;2023-05-10T04:30:50;12.98;;;11.32;;
15913;SDS011;8055;51.930;8.840;2023-05-10T04:33:15;10.98;;;9.88;;
15913;SDS011;8055;51.930;8.840;2023-05-10T04:35:40;12.82;;;10.73;;
15913;SDS011;8055;51.930;8.840;2023-05-10T04:38:06;11.15;;;9.30;;
15913;SDS011;8055;51.930;8.840;2023-05-10T04:40:31;8.70;;;7.60;;
15913;SDS011;8055;51.930;8.840;2023-05-10T04:42:57;6.97;;;6.07;;
15913;SDS011;8055;51.930;8.840;2023-05-10T04:45:22;5.13;;;4.60;;
15913;SDS011;8055;51.930;8.840;2023-05-10T04:47:47;6.50;;;4.63;;
15913;SDS011;8055;51.930;8.840;2023-05-10T04:50:13;4.53;;;3.80;;
15913;SDS011;8055;51.930;8.840;2023-05-10T04:52:38;5.38;;;4.03;;
15913;SDS011;8055;51.930;8.840;2023-05-10T04:55:04;4.38;;;3.30;;
15913;SDS011;8055;51.930;8.840;2023-05-10T04:57:29;3.90;;;3.40;;
15913;SDS011;8055;51.930;8.840;2023-05-10T04:59:55;2.53;;;2.33;;
15913;SDS011;8055;51.930;8.840;2023-05-10T05:02:20;3.58;;;1.90;;
15913;SDS011;8055;51.930;8.840;2023-05-10T05:04:46;8.35;;;1.70;;
15913;SDS011;8055;51.930;8.840;2023-05-10T05:07:11;3.58;;;1.88;;
15913;SDS011;8055;51.930;8.840;2023-05-10T05:09:37;1.30;;;1.20;;
15913;SDS011;8055;51.930;8.840;2023-05-10T05:12:02;2.05;;;1.30;;
15913;SDS011;8055;51.930;8.840;2023-05-10T05:14:28;3.50;;;1.55;;
15913;SDS011;8055;51.930;8.840;2023-05-10T05:16:54;0.90;;;0.90;;
15913;SDS011;8055;51.930;8.840;2023-05-10T05:19:19;1.20;;;1.10;;
15913;SDS011;8055;51.930;8.840;2023-05-10T05:21:44;1.70;;;1.15;;
15913;SDS011;8055;51.930;8.840;2023-05-10T05:24:10;2.47;;;1.23;;
15913;SDS011;8055;51.930;8.840;2023-05-10T05:26:36;1.25;;;1.17;;
15913;SDS011;8055;51.930;8.840;2023-05-10T05:29:01;1.10;;;1.00;;
15913;SDS011;8055;51.930;8.840;2023-05-10T05:31:27;1.58;;;1.17;;
15913;SDS011;8055;51.930;8.840;2023-05-10T05:33:53;2.90;;;1.35;;
15913;SDS011;8055;51.930;8.840;2023-05-10T05:36:18;2.28;;;1.20;;
15913;SDS011;8055;51.930;8.840;2023-05-10T05:38:44;2.22;;;1.20;;
15913;SDS011;8055;51.930;8.840;2023-05-10T05:41:10;2.17;;;1.00;;
15913;SDS011;8055;51.930;8.840;2023-05-10T05:43:35;2.15;;;1.20;;
15913;SDS011;8055;51.930;8.840;2023-05-10T05:46:00;2.30;;;1.30;;
15913;SDS011;8055;51.930;8.840;2023-05-10T05:48:26;1.30;;;1.20;;
15913;SDS011;8055;51.930;8.840;2023-05-10T05:50:54;3.38;;;1.38;;
15913;SDS011;8055;51.930;8.840;2023-05-10T05:53:20;2.00;;;1.20;;
15913;SDS011;8055;51.930;8.840;2023-05-10T05:55:56;2.88;;;1.40;;
15913;SDS011;8055;51.930;8.840;2023-05-10T05:58:23;2.60;;;1.20;;
15913;SDS011;8055;51.930;8.840;2023-05-10T06:00:49;1.90;;;1.50;;
15913;SDS011;8055;51.930;8.840;2023-05-10T06:03:16;2.75;;;1.77;;
15913;SDS011;8055;51.930;8.840;2023-05-10T06:05:42;2.80;;;1.65;;
15913;SDS011;8055;51.930;8.840;2023-05-10T06:08:08;2.67;;;1.92;;
15913;SDS011;8055;51.930;8.840;2023-05-10T06:10:33;2.17;;;1.98;;
15913;SDS011;8055;51.930;8.840;2023-05-10T06:12:58;2.03;;;1.83;;
15913;SDS011;8055;51.930;8.840;2023-05-10T06:15:24;2.22;;;2.03;;
15913;SDS011;8055;51.930;8.840;2023-05-10T06:17:50;2.53;;;1.70;;
15913;SDS011;8055;51.930;8.840;2023-05-10T06:20:15;2.92;;;2.13;;
15913;SDS011;8055;51.930;8.840;2023-05-10T06:22:41;4.35;;;1.90;;
15913;SDS011;8055;51.930;8.840;2023-05-10T06:25:07;2.90;;;2.15;;
15913;SDS011;8055;51.930;8.840;2023-05-10T06:27:33;2.35;;;2.10;;
15913;SDS011;8055;51.930;8.840;2023-05-10T06:29:58;2.80;;;2.50;;
15913;SDS011;8055;51.930;8.840;2023-05-10T06:32:23;2.75;;;2.55;;
15913;SDS011;8055;51.930;8.840;2023-05-10T06:34:49;2.78;;;2.40;;
15913;SDS011;8055;51.930;8.840;2023-05-10T06:37:14;2.47;;;2.28;;
15913;SDS011;8055;51.930;8.840;2023-05-10T06:39:40;2.83;;;2.45;;
15913;SDS011;8055;51.930;8.840;2023-05-10T06:42:05;3.22;;;2.83;;
15913;SDS011;8055;51.930;8.840;2023-05-10T06:44:30;2.65;;;2.45;;
15913;SDS011;8055;51.930;8.840;2023-05-10T06:46:56;2.85;;;2.42;;
15913;SDS011;8055;51.930;8.840;2023-05-10T06:49:21;2.00;;;1.80;;
15913;SDS011;8055;51.930;8.840;2023-05-10T06:51:47;2.38;;;1.92;;
15913;SDS011;8055;51.930;8.840;2023-05-10T06:54:13;3.63;;;2.33;;
15913;SDS011;8055;51.930;8.840;2023-05-10T06:56:39;3.25;;;2.00;;
15913;SDS011;8055;51.930;8.840;2023-05-10T06:59:04;3.70;;;2.08;;
15913;SDS011;8055;51.930;8.840;2023-05-10T07:01:29;3.08;;;2.40;;
15913;SDS011;8055;51.930;8.840;2023-05-10T07:03:55;3.08;;;2.20;;
15913;SDS011;8055;51.930;8.840;2023-05-10T07:06:20;4.20;;;2.33;;
15913;SDS011;8055;51.930;8.840;2023-05-10T07:08:45;2.75;;;2.33;;
15913;SDS011;8055;51.930;8.840;2023-05-10T07:11:11;4.75;;;2.50;;
15913;SDS011;8055;51.930;8.840;2023-05-10T07:13:36;5.40;;;2.63;;
15913;SDS011;8055;51.930;8.840;2023-05-10T07:16:04;4.43;;;2.92;;
15913;SDS011;8055;51.930;8.840;2023-05-10T07:18:31;4.95;;;2.63;;
15913;SDS011;8055;51.930;8.840;2023-05-10T07:20:56;2.92;;;2.45;;
15913;SDS011;8055;51.930;8.840;2023-05-10T07:23:22;3.55;;;2.67;;
15913;SDS011;8055;51.930;8.840;2023-05-10T07:25:48;2.30;;;2.10;;
15913;SDS011;8055;51.930;8.840;2023-05-10T07:28:14;3.45;;;2.30;;
15913;SDS011;8055;51.930;8.840;2023-05-10T07:30:41;3.95;;;2.25;;
15913;SDS011;8055;51.930;8.840;2023-05-10T07:33:07;4.18;;;2.58;;
15913;SDS011;8055;51.930;8.840;2023-05-10T07:35:34;2.85;;;1.92;;
15913;SDS011;8055;51.930;8.840;2023-05-10T07:37:59;3.22;;;2.42;;
15913;SDS011;8055;51.930;8.840;2023-05-10T07:40:24;5.28;;;2.58;;
15913;SDS011;8055;51.930;8.840;2023-05-10T07:42:50;4.50;;;2.70;;
15913;SDS011;8055;51.930;8.840;2023-05-10T07:45:16;5.32;;;2.90;;
15913;SDS011;8055;51.930;8.840;2023-05-10T07:47:41;6.35;;;3.13;;
15913;SDS011;8055;51.930;8.840;2023-05-10T07:50:07;7.18;;;3.05;;
15913;SDS011;8055;51.930;8.840;2023-05-10T07:52:32;4.55;;;3.05;;
15913;SDS011;8055;51.930;8.840;2023-05-10T07:54:58;9.93;;;3.67;;
15913;SDS011;8055;51.930;8.840;2023-05-10T07:57:23;5.25;;;3.63;;
15913;SDS011;8055;51.930;8.840;2023-05-10T07:59:48;5.05;;;3.03;;
15913;SDS011;8055;51.930;8.840;2023-05-10T08:02:14;5.00;;;4.20;;
15913;SDS011;8055;51.930;8.840;2023-05-10T08:04:39;5.20;;;3.70;;
15913;SDS011;8055;51.930;8.840;2023-05-10T08:07:05;6.78;;;5.22;;
15913;SDS011;8055;51.930;8.840;2023-05-10T08:09:30;9.20;;;5.47;;
15913;SDS011;8055;51.930;8.840;2023-05-10T08:11:56;10.38;;;5.63;;
15913;SDS011;8055;51.930;8.840;2023-05-10T08:14:21;10.63;;;5.80;;
15913;SDS011;8055;51.930;8.840;2023-05-10T08:16:47;9.68;;;5.95;;
15913;SDS011;8055;51.930;8.840;2023-05-10T08:19:12;9.82;;;6.38;;
15913;SDS011;8055;51.930;8.840;2023-05-10T08:21:37;12.65;;;6.85;;
15913;SDS011;8055;51.930;8.840;2023-05-10T08:24:03;14.10;;;7.85;;
15913;SDS011;8055;51.930;8.840;2023-05-10T08:26:28;14.60;;;8.68;;
15913;SDS011;8055;51.930;8.840;2023-05-10T08:28:54;13.40;;;8.07;;
15913;SDS011;8055;51.930;8.840;2023-05-10T08:31:19;13.55;;;8.15;;
15913;SDS011;8055;51.930;8.840;2023-05-10T08:33:45;11.07;;;7.43;;
15913;SDS011;8055;51.930;8.840;2023-05-10T08:36:10;16.23;;;8.63;;
15913;SDS011;8055;51.930;8.840;2023-05-10T08:38:37;13.73;;;8.25;;
15913;SDS011;8055;51.930;8.840;2023-05-10T08:41:02;16.27;;;8.85;;
15913;SDS011;8055;51.930;8.840;2023-05-10T08:43:29;14.52;;;8.75;;
15913;SDS011;8055;51.930;8.840;2023-05-10T08:45:55;16.30;;;8.70;;
15913;SDS011;8055;51.930;8.840;2023-05-10T08:48:23;17.17;;;8.95;;
15913;SDS011;8055;51.930;8.840;2023-05-10T08:50:49;18.90;;;10.50;;
15913;SDS011;8055;51.930;8.840;2023-05-10T08:53:18;19.17;;;11.00;;
15913;SDS011;8055;51.930;8.840;2023-05-10T08:55:46;14.95;;;9.13;;
15913;SDS011;8055;51.930;8.840;2023-05-10T08:58:12;20.02;;;11.05;;
15913;SDS011;8055;51.930;8.840;2023-05-10T09:00:37;17.80;;;10.73;;
15913;SDS011;8055;51.930;8.840;2023-05-10T09:03:03;13.55;;;9.60;;
15913;SDS011;8055;51.930;8.840;2023-05-10T09:05:29;22.10;;;10.32;;
15913;SDS011;8055;51.930;8.840;2023-05-10T09:07:55;19.67;;;11.23;;
15913;SDS011;8055;51.930;8.840;2023-05-10T09:10:20;16.35;;;10.80;;
15913;SDS011;8055;51.930;8.840;2023-05-10T09:12:47;20.55;;;11.32;;
15913;SDS011;8055;51.930;8.840;2023-05-10T09:15:14;15.55;;;9.88;;
15913;SDS011;8055;51.930;8.840;2023-05-10T09:17:40;17.00;;;11.35;;
15913;SDS011;8055;51.930;8.840;2023-05-10T09:20:09;16.45;;;10.88;;
15913;SDS011;8055;51.930;8.840;2023-05-10T09:22:34;16.50;;;11.00;;
15913;SDS011;8055;51.930;8.840;2023-05-10T09:25:18;15.68;;;10.50;;
15913;SDS011;8055;51.930;8.840;2023-05-10T09:27:45;16.08;;;11.13;;
15913;SDS011;8055;51.930;8.840;2023-05-10T09:30:30;14.35;;;10.73;;
15913;SDS011;8055;51.930;8.840;2023-05-10T09:32:56;15.80;;;10.73;;
15913;SDS011;8055;51.930;8.840;2023-05-10T09:35:24;17.77;;;12.02;;
15913;SDS011;8055;51.930;8.840;2023-05-10T09:37:51;19.67;;;12.05;;
15913;SDS011;8055;51.930;8.840;2023-05-10T09:40:20;16.73;;;12.15;;
15913;SDS011;8055;51.930;8.840;2023-05-10T09:45:21;20.70;;;13.05;;
15913;SDS011;8055;51.930;8.840;2023-05-10T09:47:47;22.23;;;13.50;;
15913;SDS011;8055;51.930;8.840;2023-05-10T09:50:13;22.15;;;13.30;;
15913;SDS011;8055;51.930;8.840;2023-05-10T09:55:15;19.15;;;12.93;;
15913;SDS011;8055;51.930;8.840;2023-05-10T09:57:41;20.35;;;14.25;;
15913;SDS011;8055;51.930;8.840;2023-05-10T10:00:06;23.30;;;13.50;;
15913;SDS011;8055;51.930;8.840;2023-05-10T10:02:34;20.40;;;13.32;;
15913;SDS011;8055;51.930;8.840;2023-05-10T10:05:02;18.73;;;12.82;;
15913;SDS011;8055;51.930;8.840;2023-05-10T10:07:28;20.35;;;12.85;;
15913;SDS011;8055;51.930;8.840;2023-05-10T10:09:54;20.20;;;13.90;;
15913;SDS011;8055;51.930;8.840;2023-05-10T10:12:20;23.35;;;13.15;;
15913;SDS011;8055;51.930;8.840;2023-05-10T10:14:48;21.83;;;14.18;;
15913;SDS011;8055;51.930;8.840;2023-05-10T10:17:15;20.02;;;14.02;;
15913;SDS011;8055;51.930;8.840;2023-05-10T10:19:41;20.92;;;13.40;;
15913;SDS011;8055;51.930;8.840;2023-05-10T10:22:07;21.10;;;14.63;;
15913;SDS011;8055;51.930;8.840;2023-05-10T10:24:33;19.63;;;12.68;;
15913;SDS011;8055;51.930;8.840;2023-05-10T10:27:08;22.88;;;13.60;;
15913;SDS011;8055;51.930;8.840;2023-05-10T10:32:40;22.67;;;14.05;;
15913;SDS011;8055;51.930;8.840;2023-05-10T10:35:20;18.63;;;12.85;;
15913;SDS011;8055;51.930;8.840;2023-05-10T10:37:47;19.58;;;15.00;;
15913;SDS011;8055;51.930;8.840;2023-05-10T10:42:51;21.10;;;14.68;;
15913;SDS011;8055;51.930;8.840;2023-05-10T10:45:16;21.20;;;14.90;;
15913;SDS011;8055;51.930;8.840;2023-05-10T10:47:42;21.35;;;14.65;;
15913;SDS011;8055;51.930;8.840;2023-05-10T10:50:10;19.80;;;14.60;;
15913;SDS011;8055;51.930;8.840;2023-05-10T10:52:40;20.35;;;13.45;;
15913;SDS011;8055;51.930;8.840;2023-05-10T11:00:35;17.13;;;12.40;;
15913;SDS011;8055;51.930;8.840;2023-05-10T11:05:43;15.57;;;11.65;;
15913;SDS011;8055;51.930;8.840;2023-05-10T11:08:10;18.20;;;11.90;;
15913;SDS011;8055;51.930;8.840;2023-05-10T11:10:51;16.50;;;11.15;;
15913;SDS011;8055;51.930;8.840;2023-05-10T11:15:57;15.18;;;10.52;;
15913;SDS011;8055;51.930;8.840;2023-05-10T11:18:27;16.05;;;10.77;;
15913;SDS011;8055;51.930;8.840;2023-05-10T11:20:57;12.40;;;9.38;;
15913;SDS011;8055;51.930;8.840;2023-05-10T11:23:29;12.77;;;9.50;;
15913;SDS011;8055;51.930;8.840;2023-05-10T11:25:55;12.35;;;9.50;;
15913;SDS011;8055;51.930;8.840;2023-05-10T11:28:21;13.15;;;8.23;;
15913;SDS011;8055;51.930;8.840;2023-05-10T11:30:46;16.20;;;7.78;;
15913;SDS011;8055;51.930;8.840;2023-05-10T11:33:18;11.68;;;7.43;;
15913;SDS011;8055;51.930;8.840;2023-05-10T11:35:45;10.25;;;6.47;;
15913;SDS011;8055;51.930;8.840;2023-05-10T11:38:12;9.98;;;6.85;;
15913;SDS011;8055;51.930;8.840;2023-05-10T11:40:38;14.63;;;8.32;;
15913;SDS011;8055;51.930;8.840;2023-05-10T11:43:04;11.02;;;7.25;;
15913;SDS011;8055;51.930;8.840;2023-05-10T11:45:33;13.20;;;7.30;;
15913;SDS011;8055;51.930;8.840;2023-05-10T11:48:00;9.43;;;7.18;;
15913;SDS011;8055;51.930;8.840;2023-05-10T11:50:27;11.50;;;7.90;;
15913;SDS011;8055;51.930;8.840;2023-05-10T11:52:53;11.05;;;8.07;;
15913;SDS011;8055;51.930;8.840;2023-05-10T11:55:23;10.57;;;5.57;;
15913;SDS011;8055;51.930;8.840;2023-05-10T11:57:55;11.10;;;6.50;;
15913;SDS011;8055;51.930;8.840;2023-05-10T12:00:26;9.55;;;6.68;;
15913;SDS011;8055;51.930;8.840;2023-05-10T12:02:51;10.88;;;7.43;;
15913;SDS011;8055;51.930;8.840;2023-05-10T12:05:16;10.75;;;6.65;;
15913;SDS011;8055;51.930;8.840;2023-05-10T12:07:42;10.23;;;6.82;;
15913;SDS011;8055;51.930;8.840;2023-05-10T12:10:11;13.68;;;7.70;;
15913;SDS011;8055;51.930;8.840;2023-05-10T12:12:45;8.88;;;6.70;;
15913;SDS011;8055;51.930;8.840;2023-05-10T12:15:19;9.60;;;7.03;;
15913;SDS011;8055;51.930;8.840;2023-05-10T12:17:47;9.15;;;6.60;;
15913;SDS011;8055;51.930;8.840;2023-05-10T12:20:20;10.02;;;6.85;;
15913;SDS011;8055;51.930;8.840;2023-05-10T12:22:50;14.00;;;6.78;;
15913;SDS011;8055;51.930;8.840;2023-05-10T12:25:18;10.55;;;7.68;;
15913;SDS011;8055;51.930;8.840;2023-05-10T12:27:52;13.75;;;9.48;;
15913;SDS011;8055;51.930;8.840;2023-05-10T12:30:27;12.20;;;8.95;;
15913;SDS011;8055;51.930;8.840;2023-05-10T12:32:53;12.73;;;8.05;;
15913;SDS011;8055;51.930;8.840;2023-05-10T12:35:24;12.50;;;8.40;;
15913;SDS011;8055;51.930;8.840;2023-05-10T12:37:52;12.13;;;8.25;;
15913;SDS011;8055;51.930;8.840;2023-05-10T12:40:17;10.82;;;7.13;;
15913;SDS011;8055;51.930;8.840;2023-05-10T12:42:43;9.32;;;6.15;;
15913;SDS011;8055;51.930;8.840;2023-05-10T12:45:11;9.40;;;5.95;;
15913;SDS011;8055;51.930;8.840;2023-05-10T12:47:37;9.52;;;5.30;;
15913;SDS011;8055;51.930;8.840;2023-05-10T12:50:03;6.68;;;4.90;;
15913;SDS011;8055;51.930;8.840;2023-05-10T12:52:29;8.23;;;4.80;;
15913;SDS011;8055;51.930;8.840;2023-05-10T12:54:57;8.90;;;4.53;;
15913;SDS011;8055;51.930;8.840;2023-05-10T12:57:22;6.28;;;3.85;;
15913;SDS011;8055;51.930;8.840;2023-05-10T12:59:48;6.03;;;4.15;;
15913;SDS011;8055;51.930;8.840;2023-05-10T13:02:13;8.98;;;4.70;;
15913;SDS011;8055;51.930;8.840;2023-05-10T13:04:39;9.52;;;5.20;;
15913;SDS011;8055;51.930;8.840;2023-05-10T13:07:06;7.95;;;6.10;;
15913;SDS011;8055;51.930;8.840;2023-05-10T13:09:31;10.45;;;6.72;;
15913;SDS011;8055;51.930;8.840;2023-05-10T13:11:57;10.30;;;6.22;;
15913;SDS011;8055;51.930;8.840;2023-05-10T13:14:22;11.70;;;7.32;;
15913;SDS011;8055;51.930;8.840;2023-05-10T13:16:48;14.63;;;9.30;;
15913;SDS011;8055;51.930;8.840;2023-05-10T13:19:13;14.65;;;8.52;;
15913;SDS011;8055;51.930;8.840;2023-05-10T13:21:39;11.95;;;8.27;;
15913;SDS011;8055;51.930;8.840;2023-05-10T13:29:57;14.55;;;9.05;;
15913;SDS011;8055;51.930;8.840;2023-05-10T13:32:24;11.38;;;8.48;;
15913;SDS011;8055;51.930;8.840;2023-05-10T13:34:50;13.02;;;8.48;;
15913;SDS011;8055;51.930;8.840;2023-05-10T13:37:16;11.18;;;7.60;;
15913;SDS011;8055;51.930;8.840;2023-05-10T13:39:41;14.25;;;7.82;;
15913;SDS011;8055;51.930;8.840;2023-05-10T13:42:06;9.57;;;7.03;;
15913;SDS011;8055;51.930;8.840;2023-05-10T13:44:32;10.70;;;6.47;;
15913;SDS011;8055;51.930;8.840;2023-05-10T13:46:58;10.52;;;6.75;;
15913;SDS011;8055;51.930;8.840;2023-05-10T13:49:24;11.25;;;7.70;;
15913;SDS011;8055;51.930;8.840;2023-05-10T13:51:49;13.75;;;7.68;;
15913;SDS011;8055;51.930;8.840;2023-05-10T13:54:15;10.95;;;7.20;;
15913;SDS011;8055;51.930;8.840;2023-05-10T13:56:44;10.45;;;6.85;;
15913;SDS011;8055;51.930;8.840;2023-05-10T13:59:12;7.65;;;4.88;;
15913;SDS011;8055;51.930;8.840;2023-05-10T14:01:37;7.20;;;4.03;;
15913;SDS011;8055;51.930;8.840;2023-05-10T14:04:03;5.53;;;4.18;;
15913;SDS011;8055;51.930;8.840;2023-05-10T14:06:28;8.43;;;4.10;;
15913;SDS011;8055;51.930;8.840;2023-05-10T14:08:54;7.47;;;4.05;;
15913;SDS011;8055;51.930;8.840;2023-05-10T14:11:19;5.65;;;4.05;;
15913;SDS011;8055;51.930;8.840;2023-05-10T14:13:45;5.80;;;3.72;;
15913;SDS011;8055;51.930;8.840;2023-05-10T14:16:10;7.60;;;4.85;;
15913;SDS011;8055;51.930;8.840;2023-05-10T14:18:36;9.10;;;4.93;;
15913;SDS011;8055;51.930;8.840;2023-05-10T14:21:02;9.18;;;5.93;;
15913;SDS011;8055;51.930;8.840;2023-05-10T14:23:28;10.70;;;7.10;;
15913;SDS011;8055;51.930;8.840;2023-05-10T14:25:54;6.53;;;4.95;;
15913;SDS011;8055;51.930;8.840;2023-05-10T14:28:19;5.75;;;3.97;;
15913;SDS011;8055;51.930;8.840;2023-05-10T14:30:46;7.57;;;3.65;;
15913;SDS011;8055;51.930;8.840;2023-05-10T14:33:12;3.47;;;2.60;;
15913;SDS011;8055;51.930;8.840;2023-05-10T14:35:37;3.95;;;2.03;;
15913;SDS011;8055;51.930;8.840;2023-05-10T14:38:03;3.38;;;2.10;;
15913;SDS011;8055;51.930;8.840;2023-05-10T14:40:29;3.53;;;1.63;;
15913;SDS011;8055;51.930;8.840;2023-05-10T14:42:54;2.75;;;1.45;;
15913;SDS011;8055;51.930;8.840;2023-05-10T14:45:21;3.30;;;1.70;;
15913;SDS011;8055;51.930;8.840;2023-05-10T14:47:47;2.22;;;1.80;;
15913;SDS011;8055;51.930;8.840;2023-05-10T14:50:13;3.05;;;2.22;;
15913;SDS011;8055;51.930;8.840;2023-05-10T14:52:38;1.98;;;1.77;;
15913;SDS011;8055;51.930;8.840;2023-05-10T14:55:04;2.13;;;1.77;;
15913;SDS011;8055;51.930;8.840;2023-05-10T14:57:29;2.70;;;1.90;;
15913;SDS011;8055;51.930;8.840;2023-05-10T14:59:55;3.70;;;2.42;;
15913;SDS011;8055;51.930;8.840;2023-05-10T15:02:21;5.55;;;2.95;;
15913;SDS011;8055;51.930;8.840;2023-05-10T15:04:47;4.53;;;3.47;;
15913;SDS011;8055;51.930;8.840;2023-05-10T15:07:12;4.72;;;3.55;;
15913;SDS011;8055;51.930;8.840;2023-05-10T15:09:39;5.05;;;3.30;;
15913;SDS011;8055;51.930;8.840;2023-05-10T15:12:05;6.78;;;3.40;;
15913;SDS011;8055;51.930;8.840;2023-05-10T15:14:30;6.40;;;3.40;;
15913;SDS011;8055;51.930;8.840;2023-05-10T15:16:58;4.82;;;3.67;;
15913;SDS011;8055;51.930;8.840;2023-05-10T15:19:23;5.05;;;3.70;;
15913;SDS011;8055;51.930;8.840;2023-05-10T15:21:49;6.60;;;3.95;;
15913;SDS011;8055;51.930;8.840;2023-05-10T15:24:14;6.35;;;3.78;;
15913;SDS011;8055;51.930;8.840;2023-05-10T15:26:40;4.03;;;3.13;;
15913;SDS011;8055;51.930;8.840;2023-05-10T15:29:05;5.55;;;3.65;;
15913;SDS011;8055;51.930;8.840;2023-05-10T15:31:30;6.32;;;3.72;;
15913;SDS011;8055;51.930;8.840;2023-05-10T15:33:59;4.63;;;3.60;;
15913;SDS011;8055;51.930;8.840;2023-05-10T15:36:24;6.28;;;3.90;;
15913;SDS011;8055;51.930;8.840;2023-05-10T15:38:50;5.50;;;4.40;;
15913;SDS011;8055;51.930;8.840;2023-05-10T15:41:15;6.35;;;4.38;;